Harlev, Denmark
Current Conditions -  °F | °C
As of 6:50 AM on Friday 28 Nov 2014 (Local Time) from EKRK Reporting Station
Broken Clouds Broken Clouds  
Wind Chill: 34°   Ceiling: 3900
Heat Index: 43°   Visibility: 6mi
Dew Point: 34°   Wind: 21mph
Humidity: 70%   Direction: 120°ESE
Pressure: 30.18"   Gusts: 32mph
Location:  55.35°N, 12.23°E
Report Text: EKRK 280550Z AUTO 12018G28KT 9999NDV FEW023/// BKN039///BKN046/// 06/01 Q1022
Loading
Personal Weather Stations






























Interactive Weather Map New forecast layout! Learn more

10-Day Weather Forecast

Advertisements
Track Severe Weather on mobile